Weather at Georgetown Airport

Public forecast

Using degrees Celsius for public forecast. Weather courtesy of forecast.io.

Closest aviation weather report (METAR) to Georgetown Airport

Closest report is Cairns International Airport, 153.1 nm (283.5 km) ENE.

2024/04/23 10:57 (retrieved 13 minutes ago)

YBCS 231057Z AUTO 15011KT 6000 DZ SCT019 BKN026 BKN041 24/23 Q1014

Closest aviation forecast (TAF) to Georgetown Airport

Closest forecast is Cairns International Airport, 153.1 nm (283.5 km) ENE.

2024/04/23 09:09 Ammendment (retrieved 2 hours ago)

TAF AMD YBCS 230906Z 2309/2406 18010KT 9999 -SHRA SCT020 BKN040 FM240000 15014KT 9999 -SHRA SCT030 INTER 2310/2403 3000 SHRA BKN015